Aeroporto :







RITROVATECI SU...

 
LOGIN :

Iscrizione | Disclaimer

   EN    FR    IT 

 









Sommario :    VFR   VFR Marginale   IFR   IFR Intensivo   IFR Molto Intensivo
Visibilità : 
Base nubi : 
>= 8 km
>= 3000ft
5 / 8 km
1000 / 3000 ft
1500m / 5 km
500 / 1000 ft
800 / 1500m
200 / 500 ft
< 800m
< 200 ft
Simboli :   Temporali  Nebbia  Neve Forte  Precipitazioni Forti  Vento > 20 kt






- Altitudine del aeroporto : 244 ft


KSFM - Sanford Regional

ULTIMO METAR :
  • 221156Z AUTO 00000KT 10SM OVC050 03/02 A2975 RMK AO2 SLP078 6//// 7//// T00330022 10033 21011 56024 PNO $

METARs OBSOLETI :
  • 221056Z AUTO 00000KT 10SM OVC055 02/02 A2977 RMK AO2 RAE46 SLP085 T00220017 FZRANO PNO $
  • 220956Z AUTO 22003KT 10SM -RA BKN080 02/01 A2979 RMK AO2 UPB47E51RAB51 SLP092 T00170011 FZRANO PNO $

TAF N/A



MetMap, La meteo Aeronautica in un colpo d'occhio ! - Copyright ORBIFLY Dicembre 2007 - Disclaimer

ORBIFLY MET'MAP TEAM :

Programmazione e sviluppo : Alexandra Zaïnal
Concezione e sviluppo : Baudouin d'Aumeries
Co-Programmazione e sviluppo : Marc-Olivier Méhu
Supporto tecnico e logistico : Manuel Goepfert
Aiuto per la traduzione : Arnaldo La Scala

Contatto : metmap@orbifly.com




FONTI E CREDITI :

   NOAA